Petersburg James A Johnson Airport Petersburg US
ICAO: PAPG
IATA:
Category: Medium
Scheduled Services:

Elevation: 111 ft
TransAlt. 18000 ft.

Airport Communications:
AWOS 3:125.8
ANCHORAGE CNTR:118
CTAF:122.5
SITKA RDO:122.35

PAPG Zoom In..

If you have problems with the map follow the link
https://www.worldairports.se/pages/airport.php?
ICAO=PAPG

Runways:

(A) RW 05 length 6400 ft width 150 ft
---- / hdg 50

(B) RW 23 length 6400 ft width 150 ft
---- / hdg 230

Location; PAPG
Day. 06 / Time. 06.56 Zulu
* Altimeter: 30.01
* Temperature: -03° c. -26.6°f.
* Wind from: 190° Speed 04 kn.
Dewpoint: -04° c.
Visibility: 3 Statute Miles.
Clouds: Clear (automated report).
Conditions: Mist.

PAPG 060656Z 19004KT 3SM BR CLR M03/M04 A3001


Wind From 190°
Speed 04 kn.

 
 
jpsmedia worldairports.se 2019   terms of use